Time;durP1;ratioP1;P1;durP2;ratioP2;P2;SDS_P1;SDS_P2;PMS_P1;PMS_P2;Temp;Humidity;BMP_temperature;BMP_pressure;BME280_temperature;BME280_humidity;BME280_pressure;Samples;Min_cycle;Max_cycle;Signal;HPM_P1;HPM_P2
2022/07/02 00:02:03;;;;;;;;;;;12.20;99.90;;;;;;5012880;28;19922;-73
2022/07/02 00:04:31;;;;;;;;;;;12.20;99.90;;;;;;5012892;28;20052;-73
2022/07/02 00:06:58;;;;;;;;;;;12.30;99.90;;;;;;5015148;28;20385;-74
2022/07/02 00:09:28;;;;;;;;;;;12.30;99.90;;;;;;5016664;28;19916;-75
2022/07/02 00:11:58;;;;;;;;;;;12.40;99.90;;;;;;5016427;28;20396;-74
2022/07/02 00:14:25;;;;;;;;;;;12.40;99.90;;;;;;5016391;28;20286;-73
2022/07/02 00:16:54;;;;;;;;;;;12.40;99.90;;;;;;5016212;28;20004;-73
2022/07/02 00:19:21;;;;;;;;;;;12.40;99.90;;;;;;5016538;28;19910;-73
2022/07/02 00:21:48;;;;;;;;;;;12.40;99.90;;;;;;5016281;28;19918;-73
2022/07/02 00:24:15;;;;;;;;;;;12.60;99.90;;;;;;5016332;28;19914;-75
2022/07/02 00:26:49;;;;;;;;;;;12.60;99.90;;;;;;5016143;28;19933;-75
2022/07/02 00:29:22;;;;;;;;;;;12.70;99.90;;;;;;5016133;28;19936;-75
2022/07/02 00:31:49;;;;;;;;;;;12.70;99.90;;;;;;5016216;28;19917;-75
2022/07/02 00:34:16;;;;;;;;;;;12.90;99.90;;;;;;5016223;28;19909;-74
2022/07/02 00:36:47;;;;;;;;;;;13.00;99.90;;;;;;5016073;28;19937;-75
2022/07/02 00:39:14;;;;;;;;;;;13.00;99.90;;;;;;5015577;28;19910;-74
2022/07/02 00:41:41;;;;;;;;;;;13.10;99.90;;;;;;5015839;28;20526;-75
2022/07/02 00:44:07;;;;;;;;;;;13.10;99.90;;;;;;5015891;28;20275;-74
2022/07/02 00:46:36;;;;;;;;;;;13.10;99.90;;;;;;5015887;28;20274;-76
2022/07/02 00:49:02;;;;;;;;;;;13.00;99.90;;;;;;5015656;28;19921;-75
2022/07/02 00:51:29;;;;;;;;;;;13.10;99.90;;;;;;4998261;28;19913;-73
2022/07/02 00:53:56;;;;;;;;;;;13.10;99.90;;;;;;5002303;28;20351;-74
2022/07/02 00:56:22;;;;;;;;;;;13.10;99.90;;;;;;5003602;28;19914;-74
2022/07/02 00:58:49;;;;;;;;;;;13.10;99.90;;;;;;4995064;28;19916;-74
2022/07/02 01:01:16;;;;;;;;;;;13.20;99.90;;;;;;4994736;28;19918;-74
2022/07/02 01:03:43;;;;;;;;;;;13.20;99.90;;;;;;4994548;28;19933;-76
2022/07/02 01:06:09;;;;;;;;;;;13.20;99.90;;;;;;4995238;28;19977;-75
2022/07/02 01:11:21;;;;;;;;;;;13.20;99.90;;;;;;4995094;28;19964;-74
2022/07/02 01:13:48;;;;;;;;;;;13.20;99.90;;;;;;4994774;28;19913;-74
2022/07/02 01:16:15;;;;;;;;;;;13.30;99.90;;;;;;4994978;28;20260;-75
2022/07/02 01:18:41;;;;;;;;;;;13.40;99.90;;;;;;5001023;28;19917;-75
2022/07/02 01:21:08;;;;;;;;;;;13.40;99.90;;;;;;5013892;28;20003;-76
2022/07/02 01:23:35;;;;;;;;;;;13.40;99.90;;;;;;5012852;28;19910;-75
2022/07/02 01:26:01;;;;;;;;;;;13.40;99.90;;;;;;5013111;28;20008;-75
2022/07/02 01:28:28;;;;;;;;;;;13.50;99.90;;;;;;5013919;28;20305;-75
2022/07/02 01:30:55;;;;;;;;;;;13.50;99.90;;;;;;5013946;28;19910;-74
2022/07/02 01:33:21;;;;;;;;;;;13.50;99.90;;;;;;5013810;28;19937;-74
2022/07/02 01:35:48;;;;;;;;;;;13.50;99.90;;;;;;5013624;28;19955;-74
2022/07/02 01:38:15;;;;;;;;;;;13.50;99.90;;;;;;5013134;28;20599;-73
2022/07/02 01:40:41;;;;;;;;;;;13.50;99.90;;;;;;5013893;28;20386;-74
2022/07/02 01:43:08;;;;;;;;;;;13.50;99.90;;;;;;5007972;28;20271;-74
2022/07/02 01:45:35;;;;;;;;;;;13.50;99.90;;;;;;4994163;28;19968;-75
2022/07/02 01:48:02;;;;;;;;;;;13.60;99.90;;;;;;4977003;28;19922;-73
2022/07/02 01:50:28;;;;;;;;;;;13.60;99.90;;;;;;4993805;28;19910;-74
2022/07/02 01:52:58;;;;;;;;;;;13.60;99.90;;;;;;4992694;28;19972;-75
2022/07/02 01:55:25;;;;;;;;;;;13.60;99.90;;;;;;4976520;28;19910;-74
2022/07/02 01:57:51;;;;;;;;;;;13.50;99.90;;;;;;4993161;28;19910;-75
2022/07/02 02:00:18;;;;;;;;;;;13.50;99.90;;;;;;4994164;28;20008;-75
2022/07/02 02:02:46;;;;;;;;;;;13.50;99.90;;;;;;4992742;28;19918;-73
2022/07/02 02:05:13;;;;;;;;;;;13.60;99.90;;;;;;4993490;28;19973;-73
2022/07/02 02:07:40;;;;;;;;;;;13.70;99.90;;;;;;4993514;28;20360;-74
2022/07/02 02:10:06;;;;;;;;;;;13.70;99.90;;;;;;4993947;28;20315;-74
2022/07/02 02:12:33;;;;;;;;;;;13.80;99.90;;;;;;4993749;28;19921;-74
2022/07/02 02:15:00;;;;;;;;;;;13.80;99.90;;;;;;4993964;28;19910;-75
2022/07/02 02:17:26;;;;;;;;;;;13.80;99.90;;;;;;4993118;28;19949;-74
2022/07/02 02:19:53;;;;;;;;;;;13.80;99.90;;;;;;4993663;28;19910;-75
2022/07/02 02:22:20;;;;;;;;;;;13.70;99.90;;;;;;4993024;28;20021;-76
2022/07/02 02:24:46;;;;;;;;;;;13.70;99.90;;;;;;4993574;28;20017;-74
2022/07/02 02:27:13;;;;;;;;;;;13.70;99.90;;;;;;4992791;28;19913;-75
2022/07/02 02:29:40;;;;;;;;;;;13.70;99.90;;;;;;4992622;28;19909;-74
2022/07/02 02:32:06;;;;;;;;;;;13.60;99.90;;;;;;4993452;28;19910;-73
2022/07/02 02:34:33;;;;;;;;;;;13.70;99.90;;;;;;4993537;28;19914;-74
2022/07/02 02:37:00;;;;;;;;;;;13.70;99.90;;;;;;4992505;28;19992;-74
2022/07/02 02:39:26;;;;;;;;;;;13.70;99.90;;;;;;4993300;28;20268;-74
2022/07/02 02:41:53;;;;;;;;;;;13.80;99.90;;;;;;4992906;28;20269;-74
2022/07/02 02:44:20;;;;;;;;;;;13.90;99.90;;;;;;4992557;28;20316;-74
2022/07/02 02:46:47;;;;;;;;;;;13.90;99.90;;;;;;4993249;28;20283;-75
2022/07/02 02:49:14;;;;;;;;;;;13.90;99.90;;;;;;4992948;28;19910;-74
2022/07/02 02:51:40;;;;;;;;;;;13.90;99.90;;;;;;4992175;28;19910;-74
2022/07/02 02:54:07;;;;;;;;;;;13.80;99.90;;;;;;4993134;28;19917;-73
2022/07/02 02:56:34;;;;;;;;;;;13.80;99.90;;;;;;4992059;28;19916;-74
2022/07/02 02:59:01;;;;;;;;;;;13.90;99.90;;;;;;4992902;28;19910;-74
2022/07/02 03:01:27;;;;;;;;;;;13.90;99.90;;;;;;4992930;28;20612;-76
2022/07/02 03:03:54;;;;;;;;;;;13.90;99.90;;;;;;4993212;28;19958;-75
2022/07/02 03:06:21;;;;;;;;;;;13.90;99.90;;;;;;4992516;28;19914;-75
2022/07/02 03:08:47;;;;;;;;;;;13.90;99.90;;;;;;4992235;28;19989;-73
2022/07/02 03:11:14;;;;;;;;;;;13.80;99.90;;;;;;4992382;28;20374;-75
2022/07/02 03:13:40;;;;;;;;;;;13.80;99.90;;;;;;4992936;28;20013;-74
2022/07/02 03:16:07;;;;;;;;;;;13.80;99.90;;;;;;4993063;28;19957;-73
2022/07/02 03:18:34;;;;;;;;;;;13.80;99.90;;;;;;4992991;28;19964;-75
2022/07/02 03:21:00;;;;;;;;;;;13.80;99.90;;;;;;4992334;28;19918;-73
2022/07/02 03:23:27;;;;;;;;;;;13.80;99.90;;;;;;4993055;28;19917;-74
2022/07/02 03:25:54;;;;;;;;;;;13.80;99.90;;;;;;4992406;28;19916;-76
2022/07/02 03:28:21;;;;;;;;;;;13.70;99.90;;;;;;4993030;28;19945;-74
2022/07/02 03:30:47;;;;;;;;;;;13.80;99.90;;;;;;4975935;28;20264;-73
2022/07/02 03:33:14;;;;;;;;;;;13.80;99.90;;;;;;4993102;28;19910;-74
2022/07/02 03:35:41;;;;;;;;;;;13.80;99.90;;;;;;4994740;28;19910;-75
2022/07/02 03:38:07;;;;;;;;;;;13.70;99.90;;;;;;4993308;28;19909;-75
2022/07/02 03:40:34;;;;;;;;;;;13.80;99.90;;;;;;4995068;28;19910;-76
2022/07/02 03:43:01;;;;;;;;;;;13.80;99.90;;;;;;4996712;28;19914;-76
2022/07/02 03:45:27;;;;;;;;;;;13.80;99.90;;;;;;4996821;28;19910;-76
2022/07/02 03:47:54;;;;;;;;;;;13.80;99.90;;;;;;4996775;28;19913;-75
2022/07/02 03:50:21;;;;;;;;;;;13.80;99.90;;;;;;4996679;28;19936;-76
2022/07/02 03:52:47;;;;;;;;;;;13.80;99.90;;;;;;4996680;28;20397;-75
2022/07/02 03:55:14;;;;;;;;;;;13.80;99.90;;;;;;4996237;28;19910;-74
2022/07/02 03:57:41;;;;;;;;;;;13.80;99.90;;;;;;4995990;28;20363;-75
2022/07/02 04:00:08;;;;;;;;;;;13.80;99.90;;;;;;4996428;28;20035;-73
2022/07/02 04:02:34;;;;;;;;;;;13.80;99.90;;;;;;4996509;28;19918;-73
2022/07/02 04:05:01;;;;;;;;;;;13.90;99.90;;;;;;4996119;28;20017;-75
2022/07/02 04:07:28;;;;;;;;;;;13.90;99.90;;;;;;4997279;28;19956;-74
2022/07/02 04:09:54;;;;;;;;;;;13.90;99.90;;;;;;4996966;28;19917;-75
2022/07/02 04:12:21;;;;;;;;;;;14.00;99.90;;;;;;4997175;28;19910;-74
2022/07/02 04:14:50;;;;;;;;;;;14.00;99.90;;;;;;4997207;28;19937;-75
2022/07/02 04:17:17;;;;;;;;;;;14.00;99.90;;;;;;4997201;28;19964;-75
2022/07/02 04:19:44;;;;;;;;;;;14.10;99.90;;;;;;4996871;28;19917;-76
2022/07/02 04:22:11;;;;;;;;;;;14.10;99.90;;;;;;4996789;28;20356;-74
2022/07/02 04:24:37;;;;;;;;;;;14.10;99.90;;;;;;4996772;28;20321;-75
2022/07/02 04:27:04;;;;;;;;;;;14.10;99.90;;;;;;4996543;28;19910;-77
2022/07/02 04:29:31;;;;;;;;;;;14.00;99.90;;;;;;4996550;28;19916;-76
2022/07/02 04:31:57;;;;;;;;;;;13.90;99.90;;;;;;4996756;28;20350;-79
2022/07/02 04:34:24;;;;;;;;;;;13.90;99.90;;;;;;4996645;28;20433;-79
2022/07/02 04:36:51;;;;;;;;;;;13.90;99.90;;;;;;4996430;28;19910;-77
2022/07/02 04:39:17;;;;;;;;;;;13.90;99.90;;;;;;4996335;28;19910;-77
2022/07/02 04:41:44;;;;;;;;;;;13.90;99.90;;;;;;4996317;28;19921;-76
2022/07/02 04:44:11;;;;;;;;;;;13.90;99.90;;;;;;4996424;28;19910;-74
2022/07/02 04:46:37;;;;;;;;;;;14.10;99.90;;;;;;4996216;28;19917;-83
2022/07/02 04:49:04;;;;;;;;;;;14.10;99.90;;;;;;5011084;28;19945;-80
2022/07/02 04:51:31;;;;;;;;;;;14.00;99.90;;;;;;4995673;28;19916;-78
2022/07/02 04:53:58;;;;;;;;;;;14.00;99.90;;;;;;4996463;28;19916;-79
2022/07/02 04:56:27;;;;;;;;;;;14.00;99.90;;;;;;4996162;28;20026;-82
2022/07/02 04:58:54;;;;;;;;;;;14.10;99.90;;;;;;4989697;28;19914;-80
2022/07/02 05:01:23;;;;;;;;;;;14.10;99.90;;;;;;4975642;28;19929;-83
2022/07/02 05:03:51;;;;;;;;;;;14.10;99.90;;;;;;4975801;28;19917;-76
2022/07/02 05:06:18;;;;;;;;;;;14.10;99.90;;;;;;4974735;28;20268;-75
2022/07/02 05:08:45;;;;;;;;;;;14.20;99.90;;;;;;4975864;28;19914;-75
2022/07/02 05:11:13;;;;;;;;;;;14.20;99.90;;;;;;4975215;28;19911;-74
2022/07/02 05:13:40;;;;;;;;;;;14.30;99.90;;;;;;4975487;28;19953;-74
2022/07/02 05:16:07;;;;;;;;;;;14.20;99.90;;;;;;4975287;28;20387;-74
2022/07/02 05:18:33;;;;;;;;;;;14.10;99.90;;;;;;4975214;28;19910;-75
2022/07/02 05:21:00;;;;;;;;;;;14.20;99.90;;;;;;4975026;28;19918;-77
2022/07/02 05:23:27;;;;;;;;;;;14.20;99.90;;;;;;4975581;28;20952;-75
2022/07/02 05:25:53;;;;;;;;;;;14.30;99.90;;;;;;4975177;28;20276;-73
2022/07/02 05:28:20;;;;;;;;;;;14.30;99.90;;;;;;4989861;28;19925;-75
2022/07/02 05:30:47;;;;;;;;;;;14.30;99.90;;;;;;4994370;28;19914;-75
2022/07/02 05:33:14;;;;;;;;;;;14.20;99.90;;;;;;4993989;28;19914;-75
2022/07/02 05:35:40;;;;;;;;;;;14.20;99.90;;;;;;4994125;28;19917;-74
2022/07/02 05:38:07;;;;;;;;;;;14.20;99.90;;;;;;4987964;28;19914;-73
2022/07/02 05:40:34;;;;;;;;;;;14.20;99.90;;;;;;4995176;28;19909;-75
2022/07/02 05:43:01;;;;;;;;;;;14.20;99.90;;;;;;4995118;28;20288;-74
2022/07/02 05:45:28;;;;;;;;;;;14.20;99.90;;;;;;4995402;28;19933;-76
2022/07/02 05:47:55;;;;;;;;;;;14.20;99.90;;;;;;4995320;28;19909;-75
2022/07/02 05:50:22;;;;;;;;;;;14.20;99.90;;;;;;4994137;28;19910;-74
2022/07/02 05:52:49;;;;;;;;;;;14.30;99.90;;;;;;4994992;28;20348;-74
2022/07/02 05:55:15;;;;;;;;;;;14.20;99.90;;;;;;4994742;28;19910;-75
2022/07/02 05:57:42;;;;;;;;;;;14.20;99.90;;;;;;4994961;28;20363;-75
2022/07/02 06:00:10;;;;;;;;;;;14.20;99.90;;;;;;4995015;28;19910;-74
2022/07/02 06:02:37;;;;;;;;;;;14.20;99.90;;;;;;4994669;28;20360;-74
2022/07/02 06:07:50;;;;;;;;;;;14.30;99.90;;;;;;4993669;28;19917;-75
2022/07/02 06:10:19;;;;;;;;;;;14.30;99.90;;;;;;4994699;28;19910;-74
2022/07/02 06:12:50;;;;;;;;;;;14.30;99.90;;;;;;4994794;28;20004;-75
2022/07/02 06:15:17;;;;;;;;;;;14.30;99.90;;;;;;4994769;28;19910;-75
2022/07/02 06:17:44;;;;;;;;;;;14.30;99.90;;;;;;4994784;28;19910;-75
2022/07/02 06:20:12;;;;;;;;;;;14.30;99.90;;;;;;4994778;28;19914;-75
2022/07/02 06:22:38;;;;;;;;;;;14.30;99.90;;;;;;4994615;28;19918;-76
2022/07/02 06:25:06;;;;;;;;;;;14.20;99.90;;;;;;4994239;28;19913;-75
2022/07/02 06:27:34;;;;;;;;;;;14.20;99.90;;;;;;4994579;28;19913;-75
2022/07/02 06:30:01;;;;;;;;;;;14.20;99.90;;;;;;4994592;28;19964;-76
2022/07/02 06:32:28;;;;;;;;;;;14.20;99.90;;;;;;4994390;28;19957;-74
2022/07/02 06:34:55;;;;;;;;;;;14.20;99.90;;;;;;4994088;28;19910;-75
2022/07/02 06:37:21;;;;;;;;;;;14.20;99.90;;;;;;4994261;28;19937;-75
2022/07/02 06:39:49;;;;;;;;;;;14.30;99.90;;;;;;4992831;28;19916;-75
2022/07/02 06:42:31;;;;;;;;;;;14.30;99.90;;;;;;4994018;28;19941;-76
2022/07/02 06:44:58;;;;;;;;;;;14.40;99.90;;;;;;4993922;28;19910;-75
2022/07/02 06:47:25;;;;;;;;;;;14.50;99.90;;;;;;4994121;28;19917;-74
2022/07/02 06:49:53;;;;;;;;;;;14.50;99.90;;;;;;4994102;28;20395;-75
2022/07/02 06:52:20;;;;;;;;;;;14.50;99.90;;;;;;4994026;28;20362;-76
2022/07/02 06:54:47;;;;;;;;;;;14.50;99.90;;;;;;5008999;28;20352;-77
2022/07/02 06:57:14;;;;;;;;;;;14.50;99.90;;;;;;4993726;28;19932;-77
2022/07/02 06:59:40;;;;;;;;;;;14.40;99.90;;;;;;4993732;28;19910;-77
2022/07/02 07:02:07;;;;;;;;;;;14.30;99.90;;;;;;4992647;28;19953;-77
2022/07/02 07:04:35;;;;;;;;;;;14.30;99.90;;;;;;4993772;28;19928;-74
2022/07/02 07:07:07;;;;;;;;;;;14.30;99.90;;;;;;4993702;28;19910;-76
2022/07/02 07:09:34;;;;;;;;;;;14.30;99.90;;;;;;4993866;28;19917;-75
2022/07/02 07:12:04;;;;;;;;;;;14.20;99.90;;;;;;4993885;28;19917;-76
2022/07/02 07:14:31;;;;;;;;;;;14.20;99.90;;;;;;4993432;28;19910;-77
2022/07/02 07:16:58;;;;;;;;;;;14.20;99.90;;;;;;4993632;28;20274;-76
2022/07/02 07:19:28;;;;;;;;;;;14.30;99.90;;;;;;4992581;28;19952;-77
2022/07/02 07:21:54;;;;;;;;;;;14.40;99.90;;;;;;4993681;28;19965;-76
2022/07/02 07:24:21;;;;;;;;;;;14.40;99.90;;;;;;4993128;28;20354;-76
2022/07/02 07:26:48;;;;;;;;;;;14.40;99.90;;;;;;4993355;28;19987;-74
2022/07/02 07:29:15;;;;;;;;;;;14.50;99.90;;;;;;4992990;28;19932;-74
2022/07/02 07:31:42;;;;;;;;;;;14.50;99.90;;;;;;4975818;28;20415;-75
2022/07/02 07:34:09;;;;;;;;;;;14.60;99.90;;;;;;4991903;28;19914;-77
2022/07/02 07:36:36;;;;;;;;;;;14.50;99.90;;;;;;4993086;28;19909;-74
2022/07/02 07:39:03;;;;;;;;;;;14.50;99.90;;;;;;4992724;28;20292;-77
2022/07/02 07:41:30;;;;;;;;;;;14.40;99.90;;;;;;4993239;28;19918;-78
2022/07/02 07:43:57;;;;;;;;;;;14.30;99.90;;;;;;4993034;28;19909;-78
2022/07/02 07:46:24;;;;;;;;;;;14.20;99.90;;;;;;4993020;28;19984;-77
2022/07/02 07:48:50;;;;;;;;;;;14.10;99.90;;;;;;4992991;28;20001;-76
2022/07/02 07:51:17;;;;;;;;;;;14.00;99.90;;;;;;4992952;28;20409;-75
2022/07/02 07:53:44;;;;;;;;;;;14.00;99.90;;;;;;4992874;28;20360;-77
2022/07/02 07:56:13;;;;;;;;;;;14.00;99.90;;;;;;4992942;28;19972;-76
2022/07/02 07:58:39;;;;;;;;;;;14.00;99.90;;;;;;4992813;28;19917;-79
2022/07/02 08:01:06;;;;;;;;;;;14.00;99.90;;;;;;4992595;28;19914;-77
2022/07/02 08:03:33;;;;;;;;;;;14.00;99.90;;;;;;4992731;28;19932;-76
2022/07/02 08:05:59;;;;;;;;;;;14.00;99.90;;;;;;4992793;28;19914;-76
2022/07/02 08:08:26;;;;;;;;;;;14.10;99.90;;;;;;4992609;28;20291;-75
2022/07/02 08:10:53;;;;;;;;;;;14.10;99.90;;;;;;4992507;28;20352;-75
2022/07/02 08:13:19;;;;;;;;;;;14.00;99.90;;;;;;4992640;28;19910;-78
2022/07/02 08:15:46;;;;;;;;;;;14.00;99.90;;;;;;4992774;28;20004;-77
2022/07/02 08:18:13;;;;;;;;;;;13.90;99.90;;;;;;4992753;28;19917;-77
2022/07/02 08:20:55;;;;;;;;;;;13.90;99.90;;;;;;4993077;28;19917;-77
2022/07/02 08:23:25;;;;;;;;;;;13.90;99.90;;;;;;4975064;28;19961;-77
2022/07/02 08:28:58;;;;;;;;;;;13.80;99.90;;;;;;4991277;28;20387;-76
2022/07/02 08:31:24;;;;;;;;;;;13.80;99.90;;;;;;4996174;28;19921;-77
2022/07/02 08:33:52;;;;;;;;;;;13.70;99.90;;;;;;4996368;28;19910;-77
2022/07/02 08:36:18;;;;;;;;;;;13.70;99.90;;;;;;4996202;28;19910;-77
2022/07/02 08:38:45;;;;;;;;;;;13.80;99.90;;;;;;4995879;28;20323;-76
2022/07/02 08:41:13;;;;;;;;;;;13.70;99.90;;;;;;4995611;28;19918;-77
2022/07/02 08:43:41;;;;;;;;;;;13.70;99.90;;;;;;4996065;28;19910;-77
2022/07/02 08:46:08;;;;;;;;;;;13.80;99.90;;;;;;4993511;28;19952;-78
2022/07/02 08:48:36;;;;;;;;;;;13.90;99.90;;;;;;4995862;28;19964;-76
2022/07/02 08:51:03;;;;;;;;;;;13.90;99.90;;;;;;4995606;28;19917;-75
2022/07/02 08:53:29;;;;;;;;;;;13.90;99.90;;;;;;4995730;28;19921;-78
2022/07/02 08:55:57;;;;;;;;;;;13.90;99.90;;;;;;4995782;28;19952;-77
2022/07/02 08:58:25;;;;;;;;;;;13.90;99.90;;;;;;4995653;28;19909;-76
2022/07/02 09:00:53;;;;;;;;;;;13.90;99.90;;;;;;4995339;28;19994;-78
2022/07/02 09:03:21;;;;;;;;;;;13.80;99.90;;;;;;4994554;28;19977;-77
2022/07/02 09:05:50;;;;;;;;;;;13.90;99.90;;;;;;4993798;28;19963;-77
2022/07/02 09:08:17;;;;;;;;;;;13.90;99.90;;;;;;4993665;28;19910;-77
2022/07/02 09:10:45;;;;;;;;;;;13.90;99.90;;;;;;4993790;28;20241;-77
2022/07/02 09:13:12;;;;;;;;;;;13.90;99.90;;;;;;4993635;28;20272;-76
2022/07/02 09:15:39;;;;;;;;;;;13.90;99.90;;;;;;4993838;28;20348;-79
2022/07/02 09:18:06;;;;;;;;;;;13.90;99.90;;;;;;4993882;28;19952;-76
2022/07/02 09:20:33;;;;;;;;;;;13.90;99.90;;;;;;4994513;28;19914;-78
2022/07/02 09:22:59;;;;;;;;;;;14.00;99.90;;;;;;4993418;28;19917;-74
2022/07/02 09:25:27;;;;;;;;;;;14.00;99.90;;;;;;4993607;28;20000;-79
2022/07/02 09:28:01;;;;;;;;;;;14.00;99.90;;;;;;4993485;28;19957;-77
2022/07/02 09:30:31;;;;;;;;;;;14.00;99.90;;;;;;4993826;28;20005;-76
2022/07/02 09:35:43;;;;;;;;;;;14.10;99.90;;;;;;4994732;28;19921;-77
2022/07/02 09:38:10;;;;;;;;;;;14.10;99.90;;;;;;4995098;28;20029;-78
2022/07/02 09:40:38;;;;;;;;;;;14.20;99.90;;;;;;4995336;28;19910;-78
2022/07/02 09:43:05;;;;;;;;;;;14.20;99.90;;;;;;4995099;28;19918;-83
2022/07/02 09:45:32;;;;;;;;;;;14.20;99.90;;;;;;4995249;28;19957;-79
2022/07/02 09:48:02;;;;;;;;;;;14.20;99.90;;;;;;4995424;28;19937;-79
2022/07/02 09:50:28;;;;;;;;;;;14.30;99.90;;;;;;4995090;28;19910;-77
2022/07/02 09:52:58;;;;;;;;;;;14.30;99.90;;;;;;4994890;28;19909;-78
2022/07/02 09:55:26;;;;;;;;;;;14.30;99.90;;;;;;4995077;28;19992;-80
2022/07/02 09:57:54;;;;;;;;;;;14.30;99.90;;;;;;4993658;28;20299;-78
2022/07/02 10:00:22;;;;;;;;;;;14.30;99.90;;;;;;4993669;28;20359;-78
2022/07/02 10:02:55;;;;;;;;;;;14.20;99.90;;;;;;4994978;28;20370;-75
2022/07/02 10:05:27;;;;;;;;;;;14.20;99.90;;;;;;4977437;28;20000;-78
2022/07/02 10:07:55;;;;;;;;;;;14.30;99.90;;;;;;4963613;28;19914;-78
2022/07/02 10:10:29;;;;;;;;;;;14.20;99.90;;;;;;4973159;28;19914;-85
2022/07/02 10:12:57;;;;;;;;;;;14.20;99.90;;;;;;4979148;28;19914;-78
2022/07/02 10:15:25;;;;;;;;;;;14.20;99.90;;;;;;4992598;28;20285;-80
2022/07/02 10:17:53;;;;;;;;;;;14.20;99.90;;;;;;4992444;28;19913;-77
2022/07/02 10:20:22;;;;;;;;;;;14.20;99.90;;;;;;4974613;28;19914;-77
2022/07/02 10:22:50;;;;;;;;;;;14.20;99.90;;;;;;4992202;28;19917;-81
2022/07/02 10:25:21;;;;;;;;;;;14.20;99.90;;;;;;4974464;28;19910;-78
2022/07/02 10:27:48;;;;;;;;;;;14.20;99.90;;;;;;5007501;28;20284;-78
2022/07/02 10:30:18;;;;;;;;;;;14.20;99.90;;;;;;4992416;28;20001;-79
2022/07/02 10:32:58;;;;;;;;;;;14.20;99.90;;;;;;4992412;28;19913;-79
2022/07/02 10:35:25;;;;;;;;;;;14.20;99.90;;;;;;4992220;28;19921;-77
2022/07/02 10:38:01;;;;;;;;;;;14.20;99.90;;;;;;5006985;28;19979;-78
2022/07/02 10:40:29;;;;;;;;;;;14.30;99.90;;;;;;4991731;28;19920;-76
2022/07/02 10:42:59;;;;;;;;;;;14.30;99.90;;;;;;4991936;28;20368;-77
2022/07/02 10:45:26;;;;;;;;;;;14.30;99.90;;;;;;4992192;28;19919;-78
2022/07/02 10:48:03;;;;;;;;;;;14.30;99.90;;;;;;4990882;28;20287;-78
2022/07/02 10:50:38;;;;;;;;;;;14.30;99.90;;;;;;4991518;28;19961;-77
2022/07/02 10:53:11;;;;;;;;;;;14.30;99.90;;;;;;4991550;28;20267;-76
2022/07/02 10:55:40;;;;;;;;;;;14.40;99.90;;;;;;4991554;28;19952;-76
2022/07/02 10:58:07;;;;;;;;;;;14.40;99.90;;;;;;4992042;28;19910;-79
2022/07/02 11:00:35;;;;;;;;;;;14.40;99.90;;;;;;4991402;28;20025;-78
2022/07/02 11:03:13;;;;;;;;;;;14.40;99.90;;;;;;4991456;28;20359;-79
2022/07/02 11:05:53;;;;;;;;;;;14.40;99.90;;;;;;4991913;28;19936;-78
2022/07/02 11:08:37;;;;;;;;;;;14.40;99.90;;;;;;4991643;28;19921;-76
2022/07/02 11:11:04;;;;;;;;;;;14.40;99.90;;;;;;4991080;28;20340;-77
2022/07/02 11:13:35;;;;;;;;;;;14.40;99.90;;;;;;4991255;28;20379;-77
2022/07/02 11:16:02;;;;;;;;;;;14.50;99.90;;;;;;4991837;28;19914;-75
2022/07/02 11:18:30;;;;;;;;;;;14.50;99.90;;;;;;4991682;28;19960;-76
2022/07/02 11:20:57;;;;;;;;;;;14.50;99.90;;;;;;4991386;28;19911;-77
2022/07/02 11:23:24;;;;;;;;;;;14.50;99.90;;;;;;4991587;28;19917;-77
2022/07/02 11:25:52;;;;;;;;;;;14.50;99.90;;;;;;4990878;28;19910;-76
2022/07/02 11:28:18;;;;;;;;;;;14.50;99.90;;;;;;4991604;28;19981;-77
2022/07/02 11:30:45;;;;;;;;;;;14.40;99.90;;;;;;4991708;28;20419;-78
2022/07/02 11:33:13;;;;;;;;;;;14.40;99.90;;;;;;4991910;28;19963;-78
2022/07/02 11:35:42;;;;;;;;;;;14.40;99.90;;;;;;4991531;28;19910;-78
2022/07/02 11:38:09;;;;;;;;;;;14.40;99.90;;;;;;5006089;28;19913;-79
2022/07/02 11:40:36;;;;;;;;;;;14.40;99.90;;;;;;4990432;28;19917;-80
2022/07/02 11:43:12;;;;;;;;;;;14.40;99.90;;;;;;4991522;28;19922;-76
2022/07/02 11:45:48;;;;;;;;;;;14.40;99.90;;;;;;4991699;28;19910;-77
2022/07/02 11:48:19;;;;;;;;;;;14.40;99.90;;;;;;4991492;28;19952;-79
2022/07/02 11:50:55;;;;;;;;;;;14.40;99.90;;;;;;4991574;28;19917;-77
2022/07/02 11:53:21;;;;;;;;;;;14.30;99.90;;;;;;4990980;28;20576;-78
2022/07/02 11:55:48;;;;;;;;;;;14.40;99.90;;;;;;4990942;28;19952;-78
2022/07/02 11:58:15;;;;;;;;;;;14.30;99.90;;;;;;4991456;28;20383;-79
2022/07/02 12:00:42;;;;;;;;;;;14.30;99.90;;;;;;4991839;28;19921;-79
2022/07/02 12:03:10;;;;;;;;;;;14.30;99.90;;;;;;4994782;28;19922;-79
2022/07/02 12:05:37;;;;;;;;;;;14.40;99.90;;;;;;4994891;28;20004;-78
2022/07/02 12:08:04;;;;;;;;;;;14.40;99.90;;;;;;4994910;28;19921;-81
2022/07/02 12:10:40;;;;;;;;;;;14.40;99.90;;;;;;4994482;28;19910;-81
2022/07/02 12:13:10;;;;;;;;;;;14.30;99.90;;;;;;4994865;28;19917;-78
2022/07/02 12:15:49;;;;;;;;;;;14.40;99.90;;;;;;4994896;28;19933;-78
2022/07/02 12:18:17;;;;;;;;;;;14.30;99.90;;;;;;4994679;28;19910;-77
2022/07/02 12:20:44;;;;;;;;;;;14.40;99.90;;;;;;4995232;28;19916;-77
2022/07/02 12:23:11;;;;;;;;;;;14.30;99.90;;;;;;4994365;28;19921;-78
2022/07/02 12:25:44;;;;;;;;;;;14.20;99.90;;;;;;4994077;28;19917;-80
2022/07/02 12:30:56;;;;;;;;;;;14.30;99.90;;;;;;4994182;28;20374;-79
2022/07/02 12:33:40;;;;;;;;;;;14.30;99.90;;;;;;4994563;28;20466;-78
2022/07/02 12:36:07;;;;;;;;;;;14.30;99.90;;;;;;4994607;28;19917;-80
2022/07/02 12:38:43;;;;;;;;;;;14.20;99.90;;;;;;4994664;28;20433;-80
2022/07/02 12:41:10;;;;;;;;;;;14.10;99.90;;;;;;4993940;28;20359;-77
2022/07/02 12:43:37;;;;;;;;;;;14.00;99.90;;;;;;4994367;28;19943;-76
2022/07/02 12:46:05;;;;;;;;;;;13.90;99.90;;;;;;4994355;28;19957;-77
2022/07/02 12:48:32;;;;;;;;;;;13.80;99.90;;;;;;4994390;28;19910;-80
2022/07/02 12:51:08;;;;;;;;;;;13.80;99.90;;;;;;4994040;28;20044;-78
2022/07/02 12:53:35;;;;;;;;;;;13.80;99.90;;;;;;4994172;28;19933;-77
2022/07/02 12:56:04;;;;;;;;;;;13.90;99.90;;;;;;4993815;28;19993;-77
2022/07/02 12:58:31;;;;;;;;;;;14.00;99.90;;;;;;4993786;28;19914;-77
2022/07/02 13:00:58;;;;;;;;;;;14.00;99.90;;;;;;4994076;28;20016;-77
2022/07/02 13:03:25;;;;;;;;;;;14.10;99.90;;;;;;4993608;28;19926;-77
2022/07/02 13:05:53;;;;;;;;;;;14.10;99.90;;;;;;4994082;28;20056;-77
2022/07/02 13:08:23;;;;;;;;;;;14.10;99.90;;;;;;4994012;28;19959;-77
2022/07/02 13:10:50;;;;;;;;;;;14.20;99.90;;;;;;4993261;28;19914;-75
2022/07/02 13:13:18;;;;;;;;;;;14.20;99.90;;;;;;4993444;28;19909;-77
2022/07/02 13:15:45;;;;;;;;;;;14.20;99.90;;;;;;4993720;28;20247;-76
2022/07/02 13:18:12;;;;;;;;;;;14.20;99.90;;;;;;4993865;28;20017;-77
2022/07/02 13:20:42;;;;;;;;;;;14.20;99.90;;;;;;4993884;28;19910;-75
2022/07/02 13:23:09;;;;;;;;;;;14.20;99.90;;;;;;4993105;28;19922;-77
2022/07/02 13:25:36;;;;;;;;;;;14.20;99.90;;;;;;4992907;28;19910;-76
2022/07/02 13:28:03;;;;;;;;;;;14.20;99.90;;;;;;4993590;28;19914;-78
2022/07/02 13:30:30;;;;;;;;;;;14.20;99.90;;;;;;4993514;28;19917;-75
2022/07/02 13:32:57;;;;;;;;;;;14.30;99.90;;;;;;4993375;28;20418;-75
2022/07/02 13:35:24;;;;;;;;;;;14.30;99.90;;;;;;4993472;28;19968;-75
2022/07/02 13:37:50;;;;;;;;;;;14.30;99.90;;;;;;4993053;28;19914;-77
2022/07/02 13:40:17;;;;;;;;;;;14.40;99.90;;;;;;4992830;28;19914;-76
2022/07/02 13:42:44;;;;;;;;;;;14.50;99.90;;;;;;4993245;28;20024;-77
2022/07/02 13:45:11;;;;;;;;;;;14.50;99.90;;;;;;4993123;28;19917;-77
2022/07/02 13:47:38;;;;;;;;;;;14.60;99.90;;;;;;4993415;28;19940;-76
2022/07/02 13:50:05;;;;;;;;;;;14.60;99.90;;;;;;4992987;28;19914;-78
2022/07/02 13:52:32;;;;;;;;;;;14.70;99.90;;;;;;4993102;28;19918;-76
2022/07/02 13:54:59;;;;;;;;;;;14.70;99.90;;;;;;4992481;28;20328;-79
2022/07/02 13:57:25;;;;;;;;;;;14.70;99.90;;;;;;4993102;28;19917;-77
2022/07/02 13:59:52;;;;;;;;;;;14.70;99.90;;;;;;4993493;28;20280;-76
2022/07/02 14:02:19;;;;;;;;;;;14.60;99.90;;;;;;4992543;28;19918;-76
2022/07/02 14:04:46;;;;;;;;;;;14.60;99.90;;;;;;4992817;28;20292;-76
2022/07/02 14:07:12;;;;;;;;;;;14.60;99.90;;;;;;4992651;28;19910;-75
2022/07/02 14:09:39;;;;;;;;;;;14.60;99.90;;;;;;4992773;28;19909;-76
2022/07/02 14:12:07;;;;;;;;;;;14.60;99.90;;;;;;4992697;28;19914;-77
2022/07/02 14:14:34;;;;;;;;;;;14.60;99.90;;;;;;4992764;28;19932;-76
2022/07/02 14:17:01;;;;;;;;;;;14.60;99.90;;;;;;4992496;28;20015;-78
2022/07/02 14:19:28;;;;;;;;;;;14.50;99.90;;;;;;4993049;28;19910;-77
2022/07/02 14:21:55;;;;;;;;;;;14.50;99.90;;;;;;4992667;28;19918;-77
2022/07/02 14:24:21;;;;;;;;;;;14.50;99.90;;;;;;4991356;28;20380;-78
2022/07/02 14:26:48;;;;;;;;;;;14.40;99.90;;;;;;4992570;28;19950;-77
2022/07/02 14:29:15;;;;;;;;;;;14.20;99.90;;;;;;4991886;28;20425;-76
2022/07/02 14:31:43;;;;;;;;;;;14.10;99.90;;;;;;4992617;28;19917;-76
2022/07/02 14:34:09;;;;;;;;;;;14.10;99.90;;;;;;4992519;28;19952;-78